Richford, VT

1:22 PM EST on December 06, 2016 (GMT -0500)
Village | | Change Station

Elev 558 ft 44.99 °N, 72.67 °W | Updated 12 seconds ago

Overcast
Overcast
34.2 °F
Feels Like 34 °F
N
0.0
Wind Variable Wind from East

Today
High -- | Low -- °F
--% Chance of Precip.
Yesterday
High -- | Low -- °F
Precip. -- in
Pressure 30.10 in
Visibility 10.0 miles
Clouds Overcast 1900 ft
Windchill 34 °F
Dew Point 26 °F
Humidity 72%
Rainfall 0.00 in
Snow Depth Not available.
7:14 AM 4:09 PM
Waxing Crescent, 44% visible
METAR KFSO 061815Z AUTO 00000KT 10SM OVC019 00/M03 A3010 RMK AO2 T10031034
Pressure 30.10 in
Visibility 10.0 miles
Clouds Overcast 1900 ft
Windchill 34 °F
Dew Point 26 °F
Humidity 72%
Rainfall 0.00 in
Snow Depth Not available.
7:14 AM 4:09 PM
Waxing Crescent, 44% visible
METAR KFSO 061815Z AUTO 00000KT 10SM OVC019 00/M03 A3010 RMK AO2 T10031034

10-Day Weather Forecast

Almanac

Astronomy

Dec. 06, 2016 Rise Set
Actual Time
Civil Twilight
Nautical Twilight
Astronomical Twilight
Moon
Length of Visible Light
Length of Day
Tomorrow will be .
, % of the Moon is Illuminated

Today's Extremes

State Highs State Lows

Community

WunderPhotos

Upload Photos

1,955,999 photos uploaded!

WunderBlog® & News

Nearby

Air Quality

  Air Quality AQ Index Pollutant
Not available.

Snow Depth

Station Depth Elevation

Earthquake Activity

City Distance Mag. Time & Date
Minimum magnitude displayed is 2.5.

Coastal Water Temperatures

Place Temperature

Stations

Nearby Weather Stations

Station Location Temp. Windchill Dew Point Humidity Wind Precip. Elev Updated Type
                   

Watches & Warnings

There are currently no watches in effect.